Hlavní strana
METAR-TAF:

METAR-TAF

Letiště :

Bogotá, Kolumbie

zeměpisná šířka: 04-43N, zeměpisná délka: 074-09W, výška: 2547 m

Aktuální stav počasí

Zpráva byla vytvořena před 27 minutami, v 23:00 UTC
Severozápadní vítr 5 kt
Teplota 14°C
Vlhkost vzduchu 72%
Tlak 1022 hPa
Viditelnost 10 km a více
Skoro jasno ve výšce 1700 ft

METAR: SKBO 202300Z 32005KT 9999 FEW017 14/09 A3019

Čas: 18:27 (23:27 UTC)

Předpověď počasí

Zpráva byla vytvořena před 6 hodinami a 27 minutami, v 17:00 UTC
Předpověď platná od 20 v 18 UTC do 21 v 18 UTC
Západoseverozápadní vítr 8 kt
Viditelnost 10 km a více
Skoro jasno ve výšce 2000 ft
Oblačno až skoro zataženo ve výšce 20000 ft
Dočasný
od 20 v 21 UTC do 21 v 02 UTC
Viditelnost: 8000 m
Oblačno až skoro zataženo ve výšce 2300 ft
mrholení
Dočasný
od 21 v 09 UTC do 21 v 13 UTC
Viditelnost: 8000 m
Polojasno ve výšce 1500 ft

TAF: SKBO 201700Z 2018/2118 29008KT 9999 FEW020 BKN200 TEMPO 2021/2102 8000 DZ BKN023 TEMPO 2109/2113 8000 SCT015 TX21/2018Z TN08/2111Z

Stav a předpovědi počasí z více než 4 000 letišť (zprávy METAR a TAF).

Červené a žluté tečky na mapě představují dostupné meteorologické stanice.

Když kurzor umístíte na tečku, zobrazí se název stanice.

Pak kliknutím zobrazíte stav a předpověď počasí.

Chcete-li změnit mapu, kliknutím na zelené tlačítko se znaménkem +mapu přiblížíte, kliknutím na zelené tlačítko se znaménkem – mapu oddálíte a kliknutím na zelené šipky přejdete na sousední mapy.


METAR-TAF: